Airfield :
LOGIN :

Register | Disclaimer

   EN    FR    IT 

 










Legend :    VFR   Marginal VFR   IFR   Intensive IFR   Very Intensive IFR
Visi :
Ceiling :
>= 8 km
>= 3000ft
5 to 8 km
1000 to 3000 ft
1500m to 5 km
500 to 1000 ft
800 to 1500m
200 to 500 ft
< 800m
< 200 ft
Symbols :   Thunderstorms  Fog  Heavy snow  Heavy precipitations  Wind > 20 kt
SIGMETs :     Misc.  Thunderstorms  Icing  Turbulence  Mountain Waves  Volcanic Ashes







- Airport Elevation : 121 ft
- IATA code : HUY
- Download approach charts


EGNJ - Humberside

CURRENT METAR :
  • 230450Z AUTO 21015KT 9999 SCT007/// BKN010/// BKN015/// 12/11 Q0981 RERA

EXPIRED METARs :
  • 230420Z AUTO 23012KT 0700 +RA SCT002/// BKN006/// OVC009/// 12/11 Q0981 REDZ
  • 230350Z AUTO 21017KT 0800 +RA SCT006/// SCT009/// BKN014/// 12/11 Q0981 REDZ
  • 230320Z AUTO 21015KT 9999 FEW017/// BKN022/// BKN036/// 13/11 Q0981
  • 230250Z AUTO 21020KT 9999 NCD 13/10 Q0981
  • 230220Z AUTO 21019KT 9999 SCT044/// 13/11 Q0981

TAF AMD TAF EGNJ
Valid from the 23 at 04:00 until the 23 at 12:00 UTC


230413Z 2304/2312 20022G32KT 9999 SCT020
BECMG 2304/2306 24015KT
TEMPO 2304/2306 0700 +RA BKN006
TEMPO 2304/2312 24018G28KT
ATIS : +44 1652 682 020
No reported NOTAMs for that airfield.
1 SIGMET reported for the London FIR (EGTT) :
 
Severe turbulence
EGTT SIGMET 01 VALID 230200/230600 EGRR
EGTT LONDON FIR SEV TURB FCST SE OF LINE N5000 W00200 - N5500 E00126 SFC/FL060 MOV E 25KT NC=



MET'MAP, your aeronautical weather chart ! - Copyright ORBIFLY December 2007 - Disclaimer

ORBIFLY MET'MAP TEAM :

Programming & Development : Alexandra Zaïnal
Concept & Development : Baudouin d'Aumeries
Co-Development & Prog : Marc-Olivier Méhu
Technical & hardware support : Manuel Goepfert

Contact : metmap@orbifly.com




SOURCES & CREDITS :

   NOAA